createdAt,value
2023-01-29T00:03:08.391Z,0.00
2023-01-29T00:08:11.321Z,0.10
2023-01-29T00:13:14.746Z,0.10
2023-01-29T00:18:17.466Z,0.10
2023-01-29T00:23:20.252Z,0.10
2023-01-29T00:28:23.005Z,0.10
2023-01-29T00:33:25.856Z,0.10
2023-01-29T00:38:29.178Z,0.10
2023-01-29T00:43:50.509Z,0.10
2023-01-29T00:48:53.312Z,0.10
2023-01-29T00:53:59.565Z,0.10
2023-01-29T00:59:04.346Z,0.10
2023-01-29T01:04:07.775Z,0.10
2023-01-29T01:09:30.457Z,0.10
2023-01-29T01:14:36.448Z,0.00
2023-01-29T01:19:39.495Z,0.00
2023-01-29T01:24:42.393Z,-0.10
2023-01-29T01:29:45.175Z,-0.10
2023-01-29T01:34:48.201Z,-0.20
2023-01-29T01:39:51.565Z,-0.20
2023-01-29T01:44:59.511Z,-0.20
2023-01-29T01:50:08.727Z,-0.30
2023-01-29T01:55:15.095Z,-0.30
2023-01-29T02:00:20.656Z,-0.30
2023-01-29T02:05:42.431Z,-0.30
2023-01-29T02:10:47.777Z,-0.30
2023-01-29T02:15:50.505Z,-0.30
2023-01-29T02:21:29.542Z,-0.30
2023-01-29T02:26:55.861Z,-0.30
2023-01-29T02:32:26.125Z,-0.30
2023-01-29T02:37:42.783Z,-0.30
2023-01-29T02:43:08.777Z,-0.30
2023-01-29T02:48:21.954Z,-0.40
2023-01-29T02:53:44.998Z,-0.40
2023-01-29T02:58:57.777Z,-0.30
2023-01-29T03:04:07.945Z,-0.30
2023-01-29T03:09:18.190Z,-0.40
2023-01-29T03:14:54.635Z,-0.50
2023-01-29T03:19:58.550Z,-0.50
2023-01-29T03:25:21.582Z,-0.50
2023-01-29T03:30:46.989Z,-0.50
2023-01-29T03:36:13.711Z,-0.50
2023-01-29T03:41:22.651Z,-0.50
2023-01-29T03:46:59.565Z,-0.60
2023-01-29T03:52:35.167Z,-0.60
2023-01-29T03:57:43.210Z,-0.60
2023-01-29T04:02:52.191Z,-0.60
2023-01-29T04:08:02.904Z,-0.60
2023-01-29T04:13:12.248Z,-0.60
2023-01-29T04:18:17.526Z,-0.60
2023-01-29T04:23:42.407Z,-0.70
2023-01-29T04:29:22.644Z,-0.70
2023-01-29T04:34:54.403Z,-0.70
2023-01-29T04:40:24.030Z,-0.80
2023-01-29T04:45:48.042Z,-0.80
2023-01-29T04:51:02.582Z,-0.80
2023-01-29T04:56:19.241Z,-0.90
2023-01-29T05:01:25.990Z,-1.10
2023-01-29T05:06:31.315Z,-1.10
2023-01-29T05:11:36.098Z,-1.20
2023-01-29T05:16:44.114Z,-1.30
2023-01-29T05:21:49.443Z,-1.40
2023-01-29T05:27:13.386Z,-1.30
2023-01-29T05:32:16.473Z,-1.50
2023-01-29T05:37:19.301Z,-1.60
2023-01-29T05:42:22.044Z,-1.60
2023-01-29T05:47:24.662Z,-1.60
2023-01-29T05:52:27.262Z,-1.70
2023-01-29T05:57:29.920Z,-1.70
2023-01-29T06:02:32.697Z,-1.70
2023-01-29T06:07:36.403Z,-1.60
2023-01-29T06:12:39.139Z,-1.60
2023-01-29T06:17:42.844Z,-1.70
2023-01-29T06:22:45.687Z,-1.70
2023-01-29T06:27:51.357Z,-1.80
2023-01-29T06:32:59.022Z,-1.80
2023-01-29T06:38:01.760Z,-1.80
2023-01-29T06:43:04.537Z,-1.80
2023-01-29T06:48:07.496Z,-1.90
2023-01-29T06:53:10.249Z,-1.90
2023-01-29T06:58:13.255Z,-1.90
2023-01-29T07:03:15.919Z,-1.90
2023-01-29T07:08:18.718Z,-2.00
2023-01-29T07:13:21.387Z,-1.90
2023-01-29T07:18:24.278Z,-1.90
2023-01-29T07:23:28.847Z,-1.90
2023-01-29T07:28:31.746Z,-1.80
2023-01-29T07:33:35.185Z,-1.80
2023-01-29T07:38:37.960Z,-1.90
2023-01-29T07:43:40.904Z,-1.80
2023-01-29T07:48:43.622Z,-1.80
2023-01-29T07:53:46.433Z,-1.90
2023-01-29T07:58:49.120Z,-1.80
2023-01-29T08:03:51.838Z,-1.50
2023-01-29T08:08:55.957Z,-1.20
2023-01-29T08:13:58.778Z,-0.80
2023-01-29T08:19:04.270Z,-0.80
2023-01-29T08:24:07.543Z,-0.80
2023-01-29T08:29:11.983Z,0.10
2023-01-29T08:34:15.240Z,0.50
2023-01-29T08:39:18.137Z,0.00
2023-01-29T08:44:21.078Z,-0.40
2023-01-29T08:49:24.184Z,-0.80
2023-01-29T08:54:27.016Z,-0.90
2023-01-29T08:59:29.771Z,-0.90
2023-01-29T09:04:32.504Z,0.10
2023-01-29T09:09:35.198Z,3.30
2023-01-29T09:14:38.507Z,1.10
2023-01-29T09:19:41.386Z,1.80
2023-01-29T09:24:44.217Z,2.00
2023-01-29T09:29:47.157Z,3.60
2023-01-29T09:34:50.241Z,1.20
2023-01-29T09:39:53.396Z,0.50
2023-01-29T09:45:07.882Z,0.20
2023-01-29T09:50:39.039Z,-0.10
2023-01-29T09:55:52.967Z,0.00
2023-01-29T10:01:26.225Z,-0.40
2023-01-29T10:06:37.286Z,-0.40
2023-01-29T10:12:00.727Z,-0.60
2023-01-29T10:17:18.705Z,-0.70
2023-01-29T10:22:33.385Z,0.00
2023-01-29T10:27:41.195Z,0.00
2023-01-29T10:32:44.686Z,0.40
2023-01-29T10:37:47.866Z,1.00
2023-01-29T10:43:02.139Z,0.30
2023-01-29T10:48:58.909Z,1.60
2023-01-29T10:54:10.727Z,0.00
2023-01-29T10:59:37.637Z,-0.50
2023-01-29T11:04:40.397Z,-0.40
2023-01-29T11:09:50.426Z,5.40
2023-01-29T11:15:00.681Z,2.00
2023-01-29T11:20:06.527Z,0.80
2023-01-29T11:25:30.239Z,0.30
2023-01-29T11:30:39.500Z,-0.20
2023-01-29T11:35:42.643Z,-0.60
2023-01-29T11:40:46.339Z,-0.40
2023-01-29T11:45:52.774Z,-0.30
2023-01-29T11:51:01.836Z,-0.30
2023-01-29T11:56:16.841Z,-0.40
2023-01-29T12:01:34.176Z,-0.30
2023-01-29T12:06:42.621Z,-0.40
2023-01-29T12:11:45.629Z,-0.40
2023-01-29T12:16:55.798Z,-0.40
2023-01-29T12:22:20.105Z,-0.30
2023-01-29T12:27:46.936Z,-0.20
2023-01-29T12:32:55.808Z,-0.20
2023-01-29T12:38:20.444Z,0.20
2023-01-29T12:43:31.098Z,2.10
2023-01-29T12:48:36.939Z,0.10
2023-01-29T12:53:48.092Z,-0.20
2023-01-29T12:58:55.064Z,-0.50
2023-01-29T13:04:21.286Z,-0.70
2023-01-29T13:09:29.230Z,-0.60
2023-01-29T13:14:47.721Z,-0.80
2023-01-29T13:19:54.215Z,-0.60
2023-01-29T13:25:05.007Z,-0.50
2023-01-29T13:30:09.050Z,-0.30
2023-01-29T13:35:16.095Z,-0.50
2023-01-29T13:40:24.811Z,-0.40
2023-01-29T13:45:45.434Z,-0.50
2023-01-29T13:50:49.106Z,-0.50
2023-01-29T13:55:52.304Z,-0.50
2023-01-29T14:00:55.318Z,-0.50
2023-01-29T14:06:00.439Z,-0.50
2023-01-29T14:11:22.035Z,-0.40
2023-01-29T14:16:24.822Z,-0.50
2023-01-29T14:21:32.167Z,-0.50
2023-01-29T14:26:48.457Z,-0.60
2023-01-29T14:32:02.066Z,-0.60
2023-01-29T14:37:17.134Z,-0.60
2023-01-29T14:42:27.378Z,-0.90
2023-01-29T14:47:33.169Z,-0.90
2023-01-29T14:52:47.338Z,-1.10
2023-01-29T14:57:51.617Z,-1.20
2023-01-29T15:03:02.003Z,-1.20
2023-01-29T15:08:30.484Z,-1.20
2023-01-29T15:13:46.537Z,-1.30
2023-01-29T15:18:55.399Z,-1.30
2023-01-29T15:24:06.687Z,-1.40
2023-01-29T15:29:25.530Z,-1.50
2023-01-29T15:34:28.393Z,-0.50
2023-01-29T15:39:32.032Z,-1.40
2023-01-29T15:44:35.919Z,-1.60
2023-01-29T15:49:40.550Z,-1.70
2023-01-29T15:54:44.728Z,-1.70
2023-01-29T15:59:52.072Z,-1.80
2023-01-29T16:04:56.230Z,-1.80
2023-01-29T16:09:59.898Z,-1.80
2023-01-29T16:15:05.207Z,-1.80
2023-01-29T16:20:36.779Z,-1.90
2023-01-29T16:25:39.804Z,-1.90
2023-01-29T16:30:42.879Z,-1.90
2023-01-29T16:35:52.505Z,-1.80
2023-01-29T16:41:16.331Z,-1.90
2023-01-29T16:47:06.222Z,-1.80
2023-01-29T16:52:26.367Z,-1.80
2023-01-29T16:57:34.178Z,-1.70
2023-01-29T17:02:40.373Z,-1.70
2023-01-29T17:07:46.681Z,-1.70
2023-01-29T17:13:10.408Z,-1.80
2023-01-29T17:18:22.267Z,-1.70
2023-01-29T17:23:25.079Z,-1.70
2023-01-29T17:28:27.997Z,-1.80
2023-01-29T17:33:30.847Z,-1.80
2023-01-29T17:38:33.693Z,-1.80
2023-01-29T17:43:36.730Z,-1.80
2023-01-29T17:48:39.766Z,-1.80
2023-01-29T17:53:46.167Z,-1.80
2023-01-29T17:58:49.197Z,-1.80
2023-01-29T18:03:52.142Z,-1.70
2023-01-29T18:08:55.048Z,-1.70
2023-01-29T18:13:58.452Z,-1.60
2023-01-29T18:19:37.617Z,-1.60
2023-01-29T18:24:40.688Z,-1.60
2023-01-29T18:29:44.558Z,-1.50
2023-01-29T18:34:47.443Z,-1.50
2023-01-29T18:39:50.408Z,-1.50
2023-01-29T18:44:53.378Z,-1.50
2023-01-29T18:49:56.778Z,-1.40
2023-01-29T18:55:00.051Z,-1.40
2023-01-29T19:00:03.374Z,-1.40
2023-01-29T19:05:07.942Z,-1.50
2023-01-29T19:10:12.972Z,-1.50
2023-01-29T19:15:20.780Z,-1.50
2023-01-29T19:20:23.688Z,-1.50
2023-01-29T19:25:26.726Z,-1.40
2023-01-29T19:30:29.595Z,-1.50
2023-01-29T19:35:33.789Z,-1.40
2023-01-29T19:40:38.986Z,-1.40
2023-01-29T19:45:49.811Z,-1.40
2023-01-29T19:51:01.848Z,-1.40
2023-01-29T19:56:10.319Z,-1.40
2023-01-29T20:01:19.659Z,-1.40
2023-01-29T20:06:28.271Z,-1.40
2023-01-29T20:11:31.716Z,-1.40
2023-01-29T20:16:37.129Z,-1.40
2023-01-29T20:21:41.278Z,-1.40
2023-01-29T20:26:45.087Z,-1.30
2023-01-29T20:31:48.218Z,-1.30
2023-01-29T20:36:51.099Z,-1.30
2023-01-29T20:41:57.509Z,-1.20
2023-01-29T20:47:02.965Z,-1.20
2023-01-29T20:52:08.120Z,-1.20
2023-01-29T20:57:11.202Z,-1.20
2023-01-29T21:02:14.711Z,-1.10
2023-01-29T21:07:18.407Z,-1.10
2023-01-29T21:12:21.449Z,-1.10
2023-01-29T21:17:25.703Z,-1.10
2023-01-29T21:22:29.598Z,-1.10
2023-01-29T21:27:32.379Z,-1.10
2023-01-29T21:32:35.159Z,-1.00
2023-01-29T21:37:38.228Z,-1.10
2023-01-29T21:42:59.758Z,-1.20
2023-01-29T21:48:02.619Z,-1.20
2023-01-29T21:53:06.060Z,-1.20
2023-01-29T21:58:09.169Z,-1.20
2023-01-29T22:03:12.542Z,-1.20
2023-01-29T22:08:15.539Z,-1.30
2023-01-29T22:13:19.453Z,-1.40
2023-01-29T22:18:22.361Z,-1.50
2023-01-29T22:23:25.473Z,-1.60
2023-01-29T22:28:28.601Z,-1.60
2023-01-29T22:33:33.147Z,-1.60
2023-01-29T22:38:35.934Z,-1.60
2023-01-29T22:43:38.774Z,-1.60
2023-01-29T22:48:41.847Z,-1.60
2023-01-29T22:53:54.167Z,-1.80
2023-01-29T22:58:59.207Z,-1.90
2023-01-29T23:04:02.065Z,-2.00
2023-01-29T23:09:04.818Z,-1.90
2023-01-29T23:14:07.627Z,-1.90
2023-01-29T23:19:12.252Z,-1.90
2023-01-29T23:24:15.255Z,-1.90
2023-01-29T23:29:18.193Z,-1.90
2023-01-29T23:34:21.552Z,-1.80
2023-01-29T23:39:24.498Z,-1.80
2023-01-29T23:44:27.505Z,-1.70
2023-01-29T23:49:30.547Z,-1.70
2023-01-29T23:54:33.717Z,-1.60
2023-01-29T23:59:36.577Z,-1.60
